createdAt,value
2023-04-15T00:01:37.395Z,6.2
2023-04-15T00:03:39.395Z,6
2023-04-15T00:05:41.148Z,6
2023-04-15T00:11:50.275Z,6.3
2023-04-15T00:13:52.234Z,6
2023-04-15T00:15:54.208Z,6.2
2023-04-15T00:17:56.234Z,6
2023-04-15T00:19:58.149Z,5.8
2023-04-15T00:22:03.335Z,6.2
2023-04-15T00:24:05.320Z,6.1
2023-04-15T00:26:07.308Z,6
2023-04-15T00:28:36.194Z,6.1
2023-04-15T00:30:38.196Z,6.2
2023-04-15T00:32:40.159Z,6
2023-04-15T00:36:47.242Z,5.9
2023-04-15T00:38:49.206Z,6
2023-04-15T00:40:51.207Z,5.9
2023-04-15T00:42:53.164Z,5.7
2023-04-15T00:44:55.116Z,5.8
2023-04-15T00:46:57.090Z,5.9
2023-04-15T00:49:02.538Z,5.7
2023-04-15T00:51:04.214Z,5.9
2023-04-15T00:53:06.197Z,5.8
2023-04-15T00:55:08.161Z,5.6
2023-04-15T00:59:12.060Z,5.4
2023-04-15T01:01:14.137Z,5.6
2023-04-15T01:03:19.369Z,5.8
2023-04-15T01:05:21.160Z,5.7
2023-04-15T01:09:25.086Z,5.6
2023-04-15T01:13:28.986Z,5.4
2023-04-15T01:15:30.932Z,5.5
2023-04-15T01:17:36.138Z,5.7
2023-04-15T01:19:38.058Z,5.4
2023-04-15T01:21:39.991Z,5.4
2023-04-15T01:30:53.622Z,5.4
2023-04-15T01:39:01.631Z,5.3
2023-04-15T01:43:05.333Z,5.1
2023-04-15T01:45:12.060Z,5.3
2023-04-15T01:47:13.984Z,5.1
2023-04-15T01:49:15.936Z,5.2
2023-04-15T01:53:19.798Z,5.1
2023-04-15T01:55:21.773Z,5.2
2023-04-15T02:01:30.917Z,5
2023-04-15T02:03:32.822Z,5
2023-04-15T02:05:34.714Z,4.8
2023-04-15T02:07:36.640Z,4.9
2023-04-15T02:09:39.480Z,5
2023-04-15T02:11:41.434Z,5
2023-04-15T02:13:46.579Z,4.9
2023-04-15T02:15:48.517Z,5.1
2023-04-15T02:17:50.530Z,5
2023-04-15T02:18:53.034Z,4.9
2023-04-15T02:33:09.880Z,4.9
2023-04-15T02:39:15.682Z,4.9
2023-04-15T02:43:22.789Z,4.8
2023-04-15T02:45:24.717Z,4.7
2023-04-15T02:49:28.616Z,5
2023-04-15T02:55:37.627Z,5.1
2023-04-15T03:01:43.495Z,5.1
2023-04-15T03:03:45.521Z,5
2023-04-15T03:05:47.328Z,4.9
2023-04-15T03:07:49.280Z,5
2023-04-15T03:11:56.381Z,5
2023-04-15T03:15:00.919Z,4.9
2023-04-15T03:17:02.821Z,5.1
2023-04-15T03:19:04.768Z,4.9
2023-04-15T03:23:11.873Z,5.3
2023-04-15T03:45:36.486Z,4.8
2023-04-15T03:49:40.338Z,5
2023-04-15T03:51:45.506Z,4.8
2023-04-15T03:53:47.420Z,5
2023-04-15T03:55:49.388Z,4.7
2023-04-15T03:57:51.295Z,4.9
2023-04-15T03:59:53.256Z,4.6
2023-04-15T04:01:55.314Z,4.9
2023-04-15T04:03:57.226Z,4.7
2023-04-15T04:06:02.295Z,4.9
2023-04-15T04:08:04.224Z,4.7
2023-04-15T04:10:06.189Z,4.9
2023-04-15T04:12:35.049Z,4.7
2023-04-15T04:14:36.976Z,4.8
2023-04-15T04:16:38.949Z,4.9
2023-04-15T04:18:44.089Z,4.7
2023-04-15T04:20:46.028Z,4.9
2023-04-15T04:22:47.950Z,4.8
2023-04-15T04:24:49.912Z,4.6
2023-04-15T04:26:51.812Z,4.8
2023-04-15T04:30:55.699Z,4.7
2023-04-15T04:33:00.924Z,4.8
2023-04-15T04:35:02.792Z,4.7
2023-04-15T04:37:04.729Z,4.7
2023-04-15T04:39:06.662Z,4.7
2023-04-15T04:41:08.610Z,4.6
2023-04-15T04:43:10.573Z,4.7
2023-04-15T04:45:12.521Z,4.5
2023-04-15T04:47:17.617Z,4.6
2023-04-15T04:49:19.571Z,4.8
2023-04-15T04:51:21.507Z,4.7
2023-04-15T04:53:23.451Z,4.8
2023-04-15T04:55:25.405Z,4.7
2023-04-15T04:57:27.310Z,4.5
2023-04-15T04:59:29.232Z,4.5
2023-04-15T05:03:36.404Z,4.7
2023-04-15T05:05:38.281Z,4.6
2023-04-15T05:06:40.878Z,4.8
2023-04-15T05:08:42.794Z,4.7
2023-04-15T05:10:44.733Z,5
2023-04-15T05:12:46.690Z,4.8
2023-04-15T05:14:51.828Z,4.9
2023-04-15T05:16:53.760Z,4.9
2023-04-15T05:18:55.710Z,5
2023-04-15T05:20:57.622Z,4.9
2023-04-15T05:22:59.545Z,5
2023-04-15T05:25:01.499Z,5.2
2023-04-15T05:27:03.413Z,5.9
2023-04-15T05:29:08.567Z,7
2023-04-15T05:31:10.576Z,6.8
2023-04-15T05:33:12.467Z,7.2
2023-04-15T05:35:14.384Z,6.7
2023-04-15T05:37:16.324Z,6.2
2023-04-15T05:39:18.277Z,6.1
2023-04-15T05:41:20.219Z,5.9
2023-04-15T05:43:25.357Z,5.7
2023-04-15T05:45:27.382Z,5.9
2023-04-15T05:47:29.353Z,6
2023-04-15T05:49:31.224Z,6.4
2023-04-15T05:51:33.159Z,6.4
2023-04-15T05:53:35.129Z,6.4
2023-04-15T05:55:37.056Z,6.2
2023-04-15T05:57:42.238Z,6.6
2023-04-15T06:01:46.161Z,6.8
2023-04-15T06:02:48.836Z,7.4
2023-04-15T06:06:52.674Z,7.4
2023-04-15T06:23:11.615Z,6.8
2023-04-15T06:41:35.803Z,9.9
2023-04-15T06:43:37.779Z,9.4
2023-04-15T06:45:40.454Z,8.9
2023-04-15T06:47:41.805Z,8.6
2023-04-15T06:49:43.725Z,8.3
2023-04-15T06:51:45.735Z,7.8
2023-04-15T06:53:50.925Z,7.8
2023-04-15T06:55:52.938Z,8
2023-04-15T06:58:57.517Z,7.7
2023-04-15T07:00:59.532Z,7.8
2023-04-15T07:09:10.678Z,8.3
2023-04-15T07:11:12.640Z,8.5
2023-04-15T07:13:14.624Z,8.2
2023-04-15T07:15:16.628Z,8.2
2023-04-15T07:17:18.652Z,8.1
2023-04-15T07:19:20.581Z,8.2
2023-04-15T07:21:25.828Z,7.9
2023-04-15T07:23:27.787Z,8.2
2023-04-15T07:25:29.805Z,8.3
2023-04-15T07:29:33.750Z,8.7
2023-04-15T07:31:35.790Z,8.6
2023-04-15T07:33:37.733Z,8.6
2023-04-15T07:35:44.496Z,9.1
2023-04-15T07:37:46.441Z,9.5
2023-04-15T07:41:50.471Z,9.4
2023-04-15T07:43:52.432Z,9.2
2023-04-15T07:45:54.438Z,8.9
2023-04-15T07:47:56.465Z,9
2023-04-15T07:50:01.648Z,9.3
2023-04-15T07:52:03.619Z,9.1
2023-04-15T07:54:05.633Z,9
2023-04-15T08:00:38.507Z,9.6
2023-04-15T08:04:45.803Z,10.2
2023-04-15T08:10:52.838Z,10.4
2023-04-15T08:12:53.706Z,10.3
2023-04-15T08:14:55.726Z,10.1
2023-04-15T08:17:00.962Z,9.9
2023-04-15T08:19:03.135Z,9.9
2023-04-15T08:21:04.975Z,9.8
2023-04-15T08:23:06.972Z,10
2023-04-15T08:25:08.994Z,10.3
2023-04-15T08:29:13.007Z,10.2
2023-04-15T08:31:18.150Z,10
2023-04-15T08:35:22.126Z,10.3
2023-04-15T08:37:24.031Z,10.3
2023-04-15T08:41:28.015Z,10.3
2023-04-15T08:43:30.054Z,10.2
2023-04-15T08:45:35.273Z,10.6
2023-04-15T08:47:37.308Z,10.8
2023-04-15T08:54:45.896Z,10.6
2023-04-15T08:58:53.008Z,10.6
2023-04-15T09:04:58.959Z,10.6
2023-04-15T09:07:00.906Z,11.1
2023-04-15T09:09:03.184Z,11.5
2023-04-15T09:11:04.826Z,11.6
2023-04-15T09:13:10.051Z,11.9
2023-04-15T09:19:15.991Z,12.6
2023-04-15T09:21:17.866Z,12.6
2023-04-15T09:23:19.794Z,12.3
2023-04-15T09:29:28.619Z,12.1
2023-04-15T09:31:30.502Z,11.8
2023-04-15T09:33:32.374Z,11.9
2023-04-15T09:35:34.306Z,11.2
2023-04-15T09:37:36.194Z,11.4
2023-04-15T09:39:38.123Z,11.8
2023-04-15T09:45:46.972Z,12.8
2023-04-15T09:46:49.451Z,12.7
2023-04-15T09:48:51.337Z,13
2023-04-15T09:50:53.217Z,13.6
2023-04-15T09:52:55.137Z,14.2
2023-04-15T09:55:00.227Z,13.6
2023-04-15T09:57:02.006Z,13.3
2023-04-15T09:59:03.916Z,13.1
2023-04-15T10:01:05.847Z,13.2
2023-04-15T10:03:07.807Z,12.5
2023-04-15T10:05:09.562Z,12.4
2023-04-15T10:09:16.491Z,12.9
2023-04-15T10:13:20.307Z,13
2023-04-15T10:15:22.881Z,12.7
2023-04-15T10:17:24.173Z,13
2023-04-15T10:19:25.942Z,12.3
2023-04-15T10:21:27.864Z,12.3
2023-04-15T10:23:32.882Z,12.2
2023-04-15T10:35:44.255Z,12.5
2023-04-15T10:37:49.291Z,12.9
2023-04-15T10:41:53.086Z,13
2023-04-15T10:42:55.587Z,12.9
2023-04-15T10:46:59.426Z,13
2023-04-15T10:49:01.276Z,12.6
2023-04-15T10:51:06.302Z,12.3
2023-04-15T10:53:08.190Z,12
2023-04-15T10:59:13.874Z,12.9
2023-04-15T11:01:15.770Z,12.3
2023-04-15T11:03:17.817Z,12.2
2023-04-15T11:09:26.444Z,12.4
2023-04-15T11:11:28.339Z,12.1
2023-04-15T11:13:30.258Z,12.7
2023-04-15T11:15:32.118Z,13.1
2023-04-15T11:21:40.894Z,13
2023-04-15T11:44:31.679Z,12.7
2023-04-15T11:46:36.657Z,13.2
2023-04-15T11:52:42.362Z,13
2023-04-15T11:54:44.260Z,13
2023-04-15T11:56:46.159Z,12.9
2023-04-15T11:58:48.043Z,12.9
2023-04-15T12:02:55.079Z,13.2
2023-04-15T12:04:57.026Z,13.4
2023-04-15T12:06:58.776Z,13.8
2023-04-15T12:11:02.546Z,13.2
2023-04-15T12:13:04.457Z,13.2
2023-04-15T12:15:09.517Z,12.4
2023-04-15T12:17:11.372Z,13
2023-04-15T12:19:13.289Z,12.9
2023-04-15T12:21:15.204Z,12.7
2023-04-15T12:23:17.072Z,13
2023-04-15T12:25:18.981Z,13.3
2023-04-15T12:27:20.885Z,14
2023-04-15T12:29:25.919Z,14
2023-04-15T12:34:32.212Z,13.6
2023-04-15T12:38:36.013Z,13.6
2023-04-15T12:40:38.928Z,13.4
2023-04-15T12:42:42.970Z,13
2023-04-15T12:44:44.853Z,13.1
2023-04-15T12:46:46.811Z,13.1
2023-04-15T12:48:48.661Z,13
2023-04-15T12:50:50.539Z,13.5
2023-04-15T12:52:52.457Z,13.5
2023-04-15T12:54:54.360Z,13.2
2023-04-15T12:56:59.391Z,12.1
2023-04-15T12:59:01.313Z,12.3
2023-04-15T13:01:03.207Z,12.2
2023-04-15T13:03:07.035Z,12.4
2023-04-15T13:09:10.801Z,12.3
2023-04-15T13:11:15.816Z,12.4
2023-04-15T13:13:17.738Z,12.4
2023-04-15T13:15:19.643Z,12.5
2023-04-15T13:17:21.561Z,12.1
2023-04-15T13:19:23.432Z,12.1
2023-04-15T13:23:27.327Z,12.2
2023-04-15T13:25:32.787Z,11.7
2023-04-15T13:29:37.774Z,11.6
2023-04-15T13:30:40.377Z,11.5
2023-04-15T13:32:42.304Z,11.3
2023-04-15T13:34:44.202Z,11.6
2023-04-15T13:38:51.751Z,11.7
2023-04-15T13:40:53.160Z,12.1
2023-04-15T13:42:55.070Z,12
2023-04-15T13:44:57.066Z,11.7
2023-04-15T13:46:59.095Z,11.5
2023-04-15T13:53:08.402Z,11
2023-04-15T13:55:18.733Z,10.9
2023-04-15T13:57:12.362Z,10.9
2023-04-15T14:01:16.452Z,11
2023-04-15T14:03:18.539Z,10.9
2023-04-15T14:07:25.683Z,11.2
2023-04-15T14:09:28.160Z,11
2023-04-15T14:13:31.703Z,11
2023-04-15T14:15:33.706Z,11.1
2023-04-15T14:19:37.700Z,10.4
2023-04-15T14:21:42.974Z,10.6
2023-04-15T14:25:48.312Z,10.3
2023-04-15T14:26:49.608Z,10.1
2023-04-15T14:28:51.609Z,10
2023-04-15T14:30:53.658Z,10.2
2023-04-15T14:32:55.695Z,10.8
2023-04-15T14:35:00.851Z,10.1
2023-04-15T14:37:02.839Z,10
2023-04-15T14:39:05.046Z,10
2023-04-15T14:41:06.860Z,9.7
2023-04-15T14:43:08.837Z,10
2023-04-15T14:53:22.484Z,9.8
2023-04-15T14:57:26.470Z,10.3
2023-04-15T14:59:28.451Z,10.6
2023-04-15T15:07:39.711Z,10.1
2023-04-15T15:11:43.693Z,9.9
2023-04-15T15:15:47.740Z,9.9
2023-04-15T15:19:55.790Z,10
2023-04-15T15:21:57.784Z,10.5
2023-04-15T15:24:26.817Z,10.6
2023-04-15T15:26:28.638Z,10.7
2023-04-15T15:28:30.644Z,10.6
2023-04-15T15:34:39.878Z,10.3
2023-04-15T15:36:41.902Z,10
2023-04-15T15:38:43.909Z,9.5
2023-04-15T15:40:45.910Z,10.2
2023-04-15T15:42:47.898Z,10.1
2023-04-15T15:44:53.097Z,10.3
2023-04-15T15:46:55.175Z,10.2
2023-04-15T15:48:57.140Z,10.2
2023-04-15T15:50:59.099Z,10.4
2023-04-15T15:53:01.080Z,10.2
2023-04-15T15:55:03.247Z,10.4
2023-04-15T15:57:05.135Z,10
2023-04-15T15:59:10.323Z,10.2
2023-04-15T16:01:12.381Z,10.1
2023-04-15T16:03:14.387Z,10
2023-04-15T16:05:16.336Z,10.3
2023-04-15T16:07:18.331Z,9.9
2023-04-15T16:09:20.366Z,9.8
2023-04-15T16:11:22.340Z,9.8
2023-04-15T16:13:27.594Z,9.8
2023-04-15T16:15:29.705Z,9.4
2023-04-15T16:18:35.374Z,9.6
2023-04-15T16:20:37.318Z,9.6
2023-04-15T16:22:38.172Z,9.7
2023-04-15T16:24:40.159Z,10
2023-04-15T16:26:45.398Z,9.3
2023-04-15T16:28:47.386Z,9.6
2023-04-15T16:30:49.354Z,9.5
2023-04-15T16:32:51.417Z,9.3
2023-04-15T16:34:53.362Z,9.3
2023-04-15T16:36:55.355Z,9.7
2023-04-15T16:41:02.629Z,9.1
2023-04-15T16:43:04.574Z,9.5
2023-04-15T16:45:06.565Z,9
2023-04-15T16:47:08.579Z,9.1
2023-04-15T16:49:10.588Z,9.1
2023-04-15T16:51:12.565Z,9.1
2023-04-15T16:53:14.606Z,8.8
2023-04-15T16:55:19.807Z,9.1
2023-04-15T16:57:21.798Z,9
2023-04-15T17:01:25.814Z,9.1
2023-04-15T17:13:41.007Z,8.8
2023-04-15T17:14:43.626Z,8.8
2023-04-15T17:16:45.650Z,8.8
2023-04-15T17:18:47.612Z,8.7
2023-04-15T17:20:49.614Z,8.6
2023-04-15T17:22:54.898Z,9.1
2023-04-15T17:26:58.854Z,9.3
2023-04-15T17:29:00.803Z,9.3
2023-04-15T17:33:59.084Z,8.4
2023-04-15T17:41:15.979Z,8.4
2023-04-15T17:43:17.992Z,8.7
2023-04-15T17:45:19.965Z,8.8
2023-04-15T17:53:31.152Z,8.4
2023-04-15T17:55:33.128Z,8.7
2023-04-15T17:59:37.120Z,8.5
2023-04-15T18:03:41.265Z,8.6
2023-04-15T18:05:46.315Z,8.4
2023-04-15T18:09:50.311Z,8.2
2023-04-15T18:10:54.740Z,8.3
2023-04-15T18:16:58.862Z,8.2
2023-04-15T18:21:06.079Z,8.2
2023-04-15T18:35:23.308Z,8.1
2023-04-15T18:37:25.289Z,8.4
2023-04-15T18:39:27.280Z,8.2
2023-04-15T18:41:29.281Z,8.4
2023-04-15T18:43:31.264Z,8.4
2023-04-15T18:45:33.357Z,8.3
2023-04-15T18:47:38.487Z,8.4
2023-04-15T18:49:40.457Z,8.5
2023-04-15T18:51:42.460Z,8.4
2023-04-15T18:53:44.431Z,8.5
2023-04-15T18:55:46.437Z,8.6
2023-04-15T19:01:55.632Z,8.4
2023-04-15T19:03:57.617Z,8.1
2023-04-15T19:05:59.590Z,7.8
2023-04-15T19:10:30.456Z,8
2023-04-15T19:22:47.123Z,7.6
2023-04-15T19:26:51.157Z,8
2023-04-15T19:37:04.281Z,7.6
2023-04-15T19:39:06.577Z,8.1
2023-04-15T19:47:17.508Z,8
2023-04-15T19:49:19.459Z,7.5
2023-04-15T19:51:21.430Z,7.7
2023-04-15T19:53:23.422Z,7.8
2023-04-15T19:57:30.615Z,7.5
2023-04-15T19:59:32.624Z,7.6
2023-04-15T20:01:34.676Z,7.8
2023-04-15T20:02:37.362Z,7.9
2023-04-15T20:25:05.559Z,7.5
2023-04-15T20:27:07.565Z,7.8
2023-04-15T20:29:09.538Z,7.7
2023-04-15T20:31:11.588Z,7.8
2023-04-15T20:33:13.516Z,7.7
2023-04-15T20:35:15.479Z,7.8
2023-04-15T20:37:17.448Z,7.5
2023-04-15T20:39:22.678Z,7.5
2023-04-15T20:41:24.633Z,7.5
2023-04-15T20:43:26.628Z,7.5
2023-04-15T20:49:33.489Z,7.7
2023-04-15T20:51:35.453Z,7.7
2023-04-15T20:53:40.674Z,7.7
2023-04-15T20:55:42.670Z,7.5
2023-04-15T20:58:47.276Z,7.3
2023-04-15T21:00:49.290Z,7.6
2023-04-15T21:02:51.313Z,7.6
2023-04-15T21:04:53.206Z,7.7
2023-04-15T21:06:58.411Z,7.7
2023-04-15T21:09:00.430Z,7.6
2023-04-15T21:11:02.393Z,7.9
2023-04-15T21:13:04.407Z,7.7
2023-04-15T21:15:06.381Z,7.5
2023-04-15T21:17:10.600Z,7.5
2023-04-15T21:19:10.307Z,7.7
2023-04-15T21:21:15.515Z,7.6
2023-04-15T21:23:17.503Z,7.6
2023-04-15T21:25:19.466Z,7.8
2023-04-15T21:27:21.463Z,7.6
2023-04-15T21:29:23.458Z,7.6
2023-04-15T21:31:25.442Z,7.6
2023-04-15T21:33:27.437Z,8.3
2023-04-15T21:35:32.626Z,7.5
2023-04-15T21:37:34.592Z,7.6
2023-04-15T21:39:36.564Z,7.5
2023-04-15T21:41:38.568Z,7.6
2023-04-15T21:43:40.549Z,7.8
2023-04-15T21:45:42.534Z,7.4
2023-04-15T21:48:00.780Z,7.9
2023-04-15T21:49:49.709Z,7.8
2023-04-15T21:51:51.702Z,7.8
2023-04-15T21:54:56.269Z,7.6
2023-04-15T21:56:58.235Z,7.7
2023-04-15T21:59:00.229Z,7.6
2023-04-15T22:01:02.257Z,7.4
2023-04-15T22:03:07.658Z,7.3
2023-04-15T22:05:09.387Z,7.9
2023-04-15T22:07:11.375Z,7.8
2023-04-15T22:09:14.425Z,7.8
2023-04-15T22:11:15.337Z,7.8
2023-04-15T22:13:17.338Z,8
2023-04-15T22:15:19.377Z,7.8
2023-04-15T22:17:24.673Z,7.7
2023-04-15T22:19:26.488Z,7.7
2023-04-15T22:21:28.494Z,8
2023-04-15T22:23:30.453Z,7.9
2023-04-15T22:25:32.781Z,7.6
2023-04-15T22:29:36.403Z,8
2023-04-15T22:31:41.653Z,7.9
2023-04-15T22:48:00.785Z,7.9
2023-04-15T22:50:02.743Z,7.8
2023-04-15T22:52:31.640Z,7.8
2023-04-15T22:54:33.625Z,7.8
2023-04-15T22:56:35.558Z,7.9
2023-04-15T22:58:40.778Z,7.8
2023-04-15T23:00:42.771Z,7.7
2023-04-15T23:04:46.808Z,7.9
2023-04-15T23:08:50.694Z,7.9
2023-04-15T23:10:52.665Z,7.5
2023-04-15T23:17:01.911Z,7.8
2023-04-15T23:19:03.816Z,8
2023-04-15T23:21:05.840Z,7.7
2023-04-15T23:23:07.785Z,8
2023-04-15T23:25:09.769Z,7.9
2023-04-15T23:27:14.973Z,7.7
2023-04-15T23:29:16.951Z,8
2023-04-15T23:31:19.006Z,7.9
2023-04-15T23:33:20.935Z,7.7
2023-04-15T23:35:22.902Z,7.7
2023-04-15T23:37:24.912Z,7.6
2023-04-15T23:39:26.914Z,7.7
2023-04-15T23:41:32.098Z,7.9
2023-04-15T23:43:34.080Z,7.8
2023-04-15T23:48:40.635Z,7.8
2023-04-15T23:50:43.921Z,8.1
2023-04-15T23:52:44.606Z,7.8
2023-04-15T23:54:49.829Z,8.1
2023-04-15T23:56:51.813Z,8.2
2023-04-15T23:58:53.816Z,7.9
